createdAt,value
2018-08-30T00:01:05.771Z,19.33
2018-08-30T00:06:16.343Z,19.02
2018-08-30T00:08:50.026Z,19.17
2018-08-30T00:11:20.323Z,19.23
2018-08-30T00:13:50.687Z,19.25
2018-08-30T00:16:21.339Z,19.27
2018-08-30T00:18:51.487Z,19.26
2018-08-30T00:21:21.860Z,19.11
2018-08-30T00:23:52.823Z,19.33
2018-08-30T00:26:23.367Z,18.98
2018-08-30T00:28:53.760Z,19.09
2018-08-30T00:31:24.355Z,19.14
2018-08-30T00:33:54.658Z,19.05
2018-08-30T00:36:24.758Z,19.16
2018-08-30T00:38:56.206Z,18.97
2018-08-30T00:41:26.977Z,19.15
2018-08-30T00:43:57.407Z,19.08
2018-08-30T00:46:28.052Z,19.09
2018-08-30T00:48:58.310Z,19.15
2018-08-30T00:51:28.473Z,19.05
2018-08-30T00:53:58.612Z,19.16
2018-08-30T00:56:28.820Z,18.99
2018-08-30T00:58:59.079Z,18.95
2018-08-30T01:01:29.380Z,19.12
2018-08-30T01:03:59.638Z,19.04
2018-08-30T01:06:29.711Z,18.89
2018-08-30T01:08:59.959Z,19.05
2018-08-30T01:11:30.223Z,19.04
2018-08-30T01:14:00.667Z,19.11
2018-08-30T01:16:31.479Z,19.04
2018-08-30T01:19:01.907Z,18.91
2018-08-30T01:21:32.444Z,18.99
2018-08-30T01:24:02.746Z,18.90
2018-08-30T01:26:33.095Z,18.83
2018-08-30T01:29:04.040Z,18.90
2018-08-30T01:31:34.399Z,18.91
2018-08-30T01:34:04.706Z,18.82
2018-08-30T01:36:34.862Z,18.83
2018-08-30T01:39:05.773Z,18.86
2018-08-30T01:41:36.339Z,18.92
2018-08-30T01:44:06.666Z,19.14
2018-08-30T01:46:37.043Z,19.12
2018-08-30T01:49:07.258Z,19.03
2018-08-30T01:51:37.520Z,18.93
2018-08-30T01:54:07.922Z,18.81
2018-08-30T01:56:38.278Z,18.92
2018-08-30T01:59:08.471Z,18.97
2018-08-30T02:01:38.652Z,18.94
2018-08-30T02:04:08.910Z,18.86
2018-08-30T02:06:39.280Z,18.87
2018-08-30T02:09:10.098Z,18.99
2018-08-30T02:11:40.382Z,18.90
2018-08-30T02:14:10.708Z,18.88
2018-08-30T02:16:40.969Z,18.85
2018-08-30T02:19:11.292Z,18.80
2018-08-30T02:21:41.482Z,18.83
2018-08-30T02:24:11.706Z,18.91
2018-08-30T02:26:41.974Z,18.83
2018-08-30T02:29:12.160Z,18.89
2018-08-30T02:31:42.702Z,18.53
2018-08-30T02:34:13.003Z,18.31
2018-08-30T02:36:43.271Z,18.38
2018-08-30T02:39:13.739Z,18.54
2018-08-30T02:41:43.961Z,18.39
2018-08-30T02:44:15.351Z,18.38
2018-08-30T02:46:45.500Z,18.41
2018-08-30T02:49:15.611Z,18.35
2018-08-30T02:51:45.986Z,18.44
2018-08-30T02:54:16.306Z,18.67
2018-08-30T02:56:46.618Z,18.74
2018-08-30T02:59:16.859Z,18.74
2018-08-30T03:01:47.160Z,18.83
2018-08-30T03:04:17.435Z,18.93
2018-08-30T03:06:47.749Z,19.03
2018-08-30T03:09:17.940Z,18.97
2018-08-30T03:11:48.454Z,18.76
2018-08-30T03:14:19.078Z,18.65
2018-08-30T03:16:53.506Z,18.57
2018-08-30T03:19:24.208Z,18.78
2018-08-30T03:21:54.468Z,18.56
2018-08-30T03:24:25.113Z,18.58
2018-08-30T03:26:55.426Z,18.50
2018-08-30T03:29:28.730Z,18.58
2018-08-30T03:31:58.989Z,18.69
2018-08-30T03:34:29.276Z,18.45
2018-08-30T03:36:59.472Z,18.45
2018-08-30T03:39:29.707Z,18.43
2018-08-30T03:42:00.486Z,18.43
2018-08-30T03:44:31.691Z,18.37
2018-08-30T03:47:02.300Z,18.35
2018-08-30T03:49:32.852Z,18.10
2018-08-30T03:52:03.792Z,18.12
2018-08-30T03:54:34.619Z,18.23
2018-08-30T03:57:05.228Z,18.17
2018-08-30T03:59:35.520Z,18.01
2018-08-30T04:02:10.750Z,18.08
2018-08-30T04:04:41.020Z,17.97
2018-08-30T04:07:11.644Z,18.00
2018-08-30T04:09:41.823Z,17.89
2018-08-30T04:15:16.188Z,17.75
2018-08-30T04:17:46.775Z,17.88
2018-08-30T04:20:16.950Z,17.86
2018-08-30T04:22:47.109Z,17.82
2018-08-30T04:25:18.383Z,17.79
2018-08-30T04:27:48.431Z,17.76
2018-08-30T04:30:23.890Z,17.66
2018-08-30T04:32:54.782Z,17.76
2018-08-30T04:35:27.947Z,17.65
2018-08-30T04:37:58.091Z,17.71
2018-08-30T04:40:30.565Z,17.77
2018-08-30T04:43:00.922Z,17.72
2018-08-30T04:45:31.551Z,17.55
2018-08-30T04:48:03.070Z,17.59
2018-08-30T04:50:34.251Z,17.53
2018-08-30T04:53:05.159Z,17.43
2018-08-30T04:55:35.824Z,17.47
2018-08-30T04:58:07.240Z,17.53
2018-08-30T05:00:37.736Z,17.38
2018-08-30T05:03:09.193Z,17.45
2018-08-30T05:05:39.526Z,17.49
2018-08-30T05:08:11.057Z,17.65
2018-08-30T05:10:41.909Z,17.48
2018-08-30T05:13:14.489Z,17.29
2018-08-30T05:15:44.753Z,17.20
2018-08-30T05:18:15.531Z,17.22
2018-08-30T05:20:45.767Z,17.22
2018-08-30T05:23:16.131Z,17.32
2018-08-30T05:25:46.382Z,17.24
2018-08-30T05:28:16.448Z,17.13
2018-08-30T05:30:46.794Z,17.06
2018-08-30T05:33:17.751Z,17.10
2018-08-30T05:35:48.187Z,17.26
2018-08-30T05:38:19.217Z,17.33
2018-08-30T05:40:49.793Z,17.21
2018-08-30T05:43:19.967Z,17.26
2018-08-30T05:45:50.283Z,17.35
2018-08-30T05:48:20.459Z,17.40
2018-08-30T05:50:51.020Z,17.32
2018-08-30T05:53:21.260Z,17.22
2018-08-30T05:55:51.783Z,17.60
2018-08-30T05:58:22.051Z,17.38
2018-08-30T06:00:52.386Z,17.21
2018-08-30T06:03:22.740Z,17.17
2018-08-30T06:05:53.024Z,17.12
2018-08-30T06:08:23.641Z,16.99
2018-08-30T06:10:54.063Z,16.87
2018-08-30T06:13:24.427Z,16.94
2018-08-30T06:15:54.785Z,16.76
2018-08-30T06:18:25.325Z,16.94
2018-08-30T06:20:55.541Z,16.94
2018-08-30T06:23:25.743Z,16.99
2018-08-30T06:25:56.607Z,16.93
2018-08-30T06:28:26.890Z,16.79
2018-08-30T06:30:57.697Z,16.87
2018-08-30T06:33:31.913Z,16.74
2018-08-30T06:36:02.843Z,16.75
2018-08-30T06:38:33.265Z,16.65
2018-08-30T06:41:03.742Z,16.70
2018-08-30T06:43:34.472Z,16.61
2018-08-30T06:46:05.076Z,16.70
2018-08-30T06:48:35.408Z,16.61
2018-08-30T06:51:05.631Z,16.95
2018-08-30T06:53:35.886Z,16.79
2018-08-30T06:56:06.317Z,16.99
2018-08-30T06:58:36.594Z,17.02
2018-08-30T07:01:07.199Z,17.31
2018-08-30T07:03:37.895Z,17.03
2018-08-30T07:06:08.183Z,16.95
2018-08-30T07:08:41.474Z,17.32
2018-08-30T07:11:13.488Z,17.19
2018-08-30T07:13:43.811Z,16.64
2018-08-30T07:16:14.206Z,16.55
2018-08-30T07:18:44.295Z,16.52
2018-08-30T07:21:15.404Z,16.38
2018-08-30T07:23:45.660Z,16.21
2018-08-30T07:26:15.859Z,16.26
2018-08-30T07:28:46.130Z,16.29
2018-08-30T07:31:16.494Z,16.31
2018-08-30T07:33:46.673Z,16.17
2018-08-30T07:36:16.938Z,16.23
2018-08-30T07:38:47.251Z,16.37
2018-08-30T07:41:17.667Z,16.45
2018-08-30T07:43:47.792Z,16.41
2018-08-30T07:46:18.001Z,16.40
2018-08-30T07:48:48.250Z,16.52
2018-08-30T07:51:18.331Z,16.37
2018-08-30T07:53:48.752Z,16.29
2018-08-30T07:56:19.224Z,16.45
2018-08-30T07:58:50.590Z,16.21
2018-08-30T08:01:20.847Z,16.32
2018-08-30T08:03:51.094Z,16.33
2018-08-30T08:06:21.562Z,16.52
2018-08-30T08:09:04.824Z,16.46
2018-08-30T08:11:34.967Z,16.23
2018-08-30T08:14:08.707Z,15.89
2018-08-30T08:16:44.380Z,15.81
2018-08-30T08:19:14.725Z,15.71
2018-08-30T08:21:44.768Z,15.70
2018-08-30T08:24:15.123Z,15.79
2018-08-30T08:26:45.497Z,15.84
2018-08-30T08:29:15.672Z,15.94
2018-08-30T08:31:45.789Z,15.84
2018-08-30T08:34:16.045Z,15.77
2018-08-30T08:36:46.235Z,15.72
2018-08-30T08:39:16.588Z,15.51
2018-08-30T08:41:46.834Z,15.61
2018-08-30T08:44:17.122Z,15.76
2018-08-30T08:46:47.380Z,15.54
2018-08-30T08:49:17.635Z,15.68
2018-08-30T08:51:49.048Z,15.75
2018-08-30T08:54:19.329Z,15.71
2018-08-30T08:56:49.643Z,15.85
2018-08-30T08:59:19.853Z,15.90
2018-08-30T09:01:50.155Z,15.84
2018-08-30T09:04:20.403Z,15.69
2018-08-30T09:06:50.804Z,16.05
2018-08-30T09:09:21.131Z,16.34
2018-08-30T09:11:51.536Z,16.33
2018-08-30T09:14:22.144Z,16.38
2018-08-30T09:16:52.516Z,16.31
2018-08-30T09:19:22.655Z,16.34
2018-08-30T09:21:52.869Z,16.06
2018-08-30T09:24:23.131Z,16.62
2018-08-30T09:26:53.488Z,16.73
2018-08-30T09:29:23.720Z,16.93
2018-08-30T09:31:53.852Z,16.91
2018-08-30T09:34:23.884Z,16.81
2018-08-30T09:36:53.967Z,16.83
2018-08-30T09:39:24.230Z,16.79
2018-08-30T09:41:54.350Z,16.62
2018-08-30T09:44:24.622Z,16.79
2018-08-30T09:46:55.040Z,17.01
2018-08-30T09:49:25.404Z,16.80
2018-08-30T09:51:55.742Z,16.87
2018-08-30T09:54:25.888Z,17.01
2018-08-30T09:56:56.037Z,17.20
2018-08-30T09:59:26.149Z,16.97
2018-08-30T10:02:02.927Z,16.70
2018-08-30T10:04:33.538Z,16.71
2018-08-30T10:07:03.803Z,16.76
2018-08-30T10:09:34.826Z,16.67
2018-08-30T10:12:06.139Z,16.83
2018-08-30T10:14:36.466Z,16.81
2018-08-30T10:17:06.627Z,16.60
2018-08-30T10:19:36.972Z,16.63
2018-08-30T10:22:07.340Z,16.48
2018-08-30T10:24:37.907Z,16.50
2018-08-30T10:27:08.120Z,16.97
2018-08-30T10:29:38.365Z,16.80
2018-08-30T10:32:08.543Z,16.92
2018-08-30T10:34:38.846Z,16.84
2018-08-30T10:37:09.222Z,17.29
2018-08-30T10:39:39.608Z,17.33
2018-08-30T10:42:09.896Z,17.82
2018-08-30T10:44:40.070Z,17.91
2018-08-30T10:47:10.224Z,17.82
2018-08-30T10:49:40.631Z,17.72
2018-08-30T10:52:10.734Z,17.71
2018-08-30T10:54:40.963Z,17.51
2018-08-30T10:57:11.430Z,17.43
2018-08-30T10:59:41.873Z,17.32
2018-08-30T11:02:12.470Z,17.54
2018-08-30T11:04:42.956Z,17.76
2018-08-30T11:07:13.131Z,17.48
2018-08-30T11:09:43.290Z,17.71
2018-08-30T11:12:13.494Z,17.35
2018-08-30T11:14:43.712Z,17.41
2018-08-30T11:17:13.873Z,17.16
2018-08-30T11:19:44.276Z,17.20
2018-08-30T11:22:14.509Z,17.26
2018-08-30T11:24:44.601Z,17.76
2018-08-30T11:27:14.791Z,17.83
2018-08-30T11:29:44.867Z,17.56
2018-08-30T11:32:15.187Z,17.46
2018-08-30T11:34:45.423Z,17.55
2018-08-30T11:37:15.671Z,17.43
2018-08-30T11:39:45.852Z,17.55
2018-08-30T11:42:16.680Z,17.49
2018-08-30T11:44:46.871Z,17.69
2018-08-30T11:47:17.240Z,17.62
2018-08-30T11:49:47.497Z,17.80
2018-08-30T11:52:17.864Z,17.42
2018-08-30T11:54:48.077Z,17.56
2018-08-30T11:57:18.433Z,17.67
2018-08-30T11:59:49.066Z,17.58
2018-08-30T12:02:19.228Z,17.43
2018-08-30T12:04:50.546Z,17.59
2018-08-30T12:07:20.868Z,17.44
2018-08-30T12:09:51.115Z,16.91
2018-08-30T12:12:21.639Z,17.06
2018-08-30T12:14:52.137Z,17.04
2018-08-30T12:17:23.376Z,17.20
2018-08-30T12:19:53.795Z,16.73
2018-08-30T12:22:24.260Z,17.03
2018-08-30T12:24:54.537Z,16.71
2018-08-30T12:27:24.680Z,16.47
2018-08-30T12:30:10.568Z,16.73
2018-08-30T12:32:40.781Z,16.88
2018-08-30T12:35:10.993Z,16.50
2018-08-30T12:37:41.272Z,16.38
2018-08-30T12:40:11.858Z,16.15
2018-08-30T12:42:42.023Z,16.61
2018-08-30T12:45:12.309Z,16.65
2018-08-30T12:47:42.693Z,17.00
2018-08-30T12:50:13.030Z,17.22
2018-08-30T12:52:43.245Z,17.31
2018-08-30T12:55:13.525Z,17.59
2018-08-30T12:57:43.765Z,17.62
2018-08-30T13:00:14.172Z,17.63
2018-08-30T13:02:44.690Z,17.52
2018-08-30T13:05:15.148Z,17.37
2018-08-30T13:07:45.295Z,16.96
2018-08-30T13:10:15.484Z,17.12
2018-08-30T13:12:45.796Z,17.42
2018-08-30T13:15:16.257Z,17.83
2018-08-30T13:17:46.355Z,17.76
2018-08-30T13:20:16.746Z,17.97
2018-08-30T13:22:47.041Z,18.04
2018-08-30T13:25:17.530Z,18.49
2018-08-30T13:27:47.784Z,18.74
2018-08-30T13:30:17.984Z,18.61
2018-08-30T13:32:48.295Z,18.14
2018-08-30T13:35:18.611Z,17.99
2018-08-30T13:37:49.218Z,18.14
2018-08-30T13:40:19.578Z,17.96
2018-08-30T13:42:49.529Z,17.65
2018-08-30T13:45:19.704Z,17.90
2018-08-30T13:47:49.842Z,18.37
2018-08-30T13:50:20.105Z,18.37
2018-08-30T13:52:49.956Z,19.60
2018-08-30T13:55:20.238Z,19.49
2018-08-30T13:57:51.419Z,18.47
2018-08-30T14:00:21.828Z,18.51
2018-08-30T14:02:51.583Z,18.46
2018-08-30T14:05:22.125Z,19.05
2018-08-30T14:07:52.057Z,19.03
2018-08-30T14:10:22.537Z,19.23
2018-08-30T14:12:53.082Z,19.66
2018-08-30T14:15:24.904Z,20.05
2018-08-30T14:17:54.680Z,19.62
2018-08-30T14:20:25.197Z,19.27
2018-08-30T14:22:55.397Z,18.64
2018-08-30T14:25:25.392Z,18.16
2018-08-30T14:27:55.737Z,17.63
2018-08-30T14:30:25.960Z,17.82
2018-08-30T14:32:56.191Z,17.64
2018-08-30T14:35:28.755Z,17.95
2018-08-30T14:37:58.732Z,18.40
2018-08-30T14:40:33.115Z,18.87
2018-08-30T14:43:07.515Z,18.70
2018-08-30T14:45:38.797Z,18.68
2018-08-30T14:48:10.639Z,18.62
2018-08-30T14:50:40.739Z,18.27
2018-08-30T14:53:22.110Z,18.52
2018-08-30T14:55:53.540Z,18.02
2018-08-30T14:58:27.051Z,18.22
2018-08-30T15:00:56.996Z,18.47
2018-08-30T15:03:27.041Z,18.34
2018-08-30T15:05:57.781Z,18.38
2018-08-30T15:08:27.914Z,18.55
2018-08-30T15:10:58.993Z,18.39
2018-08-30T15:13:29.068Z,18.29
2018-08-30T15:15:59.471Z,18.30
2018-08-30T15:18:29.522Z,18.30
2018-08-30T15:21:00.565Z,18.42
2018-08-30T15:23:31.484Z,18.27
2018-08-30T15:26:02.853Z,18.26
2018-08-30T15:28:33.671Z,18.34
2018-08-30T15:31:05.836Z,18.29
2018-08-30T15:33:39.123Z,18.33
2018-08-30T15:36:09.916Z,18.11
2018-08-30T15:38:42.760Z,17.83
2018-08-30T15:41:14.006Z,17.99
2018-08-30T15:43:45.200Z,18.21
2018-08-30T15:46:16.841Z,18.24
2018-08-30T15:48:48.434Z,18.58
2018-08-30T15:51:21.528Z,18.72
2018-08-30T15:53:54.043Z,19.18
2018-08-30T15:56:24.358Z,19.14
2018-08-30T15:58:54.710Z,19.04
2018-08-30T16:01:24.729Z,19.37
2018-08-30T16:03:54.768Z,19.44
2018-08-30T16:06:24.793Z,19.69
2018-08-30T16:08:55.015Z,19.88
2018-08-30T16:11:25.313Z,20.19
2018-08-30T16:13:55.446Z,20.10
2018-08-30T16:16:25.496Z,20.09
2018-08-30T16:18:55.797Z,19.93
2018-08-30T16:21:25.860Z,19.76
2018-08-30T16:23:56.166Z,19.97
2018-08-30T16:26:26.164Z,19.84
2018-08-30T16:28:56.179Z,19.60
2018-08-30T16:31:26.543Z,19.41
2018-08-30T16:33:56.637Z,19.17
2018-08-30T16:36:26.712Z,18.87
2018-08-30T16:38:57.374Z,18.69
2018-08-30T16:41:27.642Z,18.55
2018-08-30T16:43:57.491Z,18.86
2018-08-30T16:46:27.779Z,18.81
2018-08-30T16:48:57.981Z,18.30
2018-08-30T16:51:27.915Z,18.10
2018-08-30T16:53:58.402Z,18.31
2018-08-30T16:56:28.610Z,18.46
2018-08-30T16:58:58.668Z,18.34
2018-08-30T17:01:28.825Z,18.26
2018-08-30T17:03:58.879Z,18.29
2018-08-30T17:06:29.112Z,17.95
2018-08-30T17:08:59.410Z,18.20
2018-08-30T17:11:29.600Z,18.02
2018-08-30T17:13:59.594Z,18.20
2018-08-30T17:16:30.028Z,18.16
2018-08-30T17:19:08.778Z,17.69
2018-08-30T17:21:38.929Z,17.56
2018-08-30T17:24:08.987Z,17.47
2018-08-30T17:29:36.361Z,17.27
2018-08-30T17:32:06.642Z,17.39
2018-08-30T17:34:36.830Z,17.46
2018-08-30T17:37:07.277Z,17.47
2018-08-30T17:39:37.566Z,17.19
2018-08-30T17:42:09.387Z,17.24
2018-08-30T17:44:39.966Z,17.14
2018-08-30T17:47:10.075Z,17.01
2018-08-30T17:49:40.837Z,17.04
2018-08-30T17:52:11.852Z,16.97
2018-08-30T17:54:41.896Z,16.95
2018-08-30T17:57:11.832Z,16.84
2018-08-30T17:59:42.269Z,16.56
2018-08-30T18:02:13.550Z,16.77
2018-08-30T18:04:43.651Z,16.59
2018-08-30T18:07:14.270Z,16.49
2018-08-30T18:09:44.257Z,16.61
2018-08-30T18:12:14.697Z,16.50
2018-08-30T18:14:50.121Z,16.52
2018-08-30T18:17:22.679Z,16.55
2018-08-30T18:19:53.592Z,16.76
2018-08-30T18:22:26.081Z,16.87
2018-08-30T18:24:56.820Z,16.77
2018-08-30T18:27:26.865Z,16.72
2018-08-30T18:29:56.954Z,16.38
2018-08-30T18:32:27.085Z,15.88
2018-08-30T18:34:57.161Z,15.93
2018-08-30T18:37:31.035Z,15.72
2018-08-30T18:40:01.186Z,15.58
2018-08-30T18:42:31.392Z,15.42
2018-08-30T18:45:01.445Z,15.13
2018-08-30T18:47:31.757Z,15.25
2018-08-30T18:50:02.625Z,15.33
2018-08-30T18:52:33.115Z,15.65
2018-08-30T18:55:06.350Z,15.87
2018-08-30T18:57:36.624Z,15.90
2018-08-30T19:00:07.355Z,15.91
2018-08-30T19:02:37.335Z,15.78
2018-08-30T19:05:10.239Z,15.60
2018-08-30T19:07:40.482Z,15.65
2018-08-30T19:10:10.630Z,15.77
2018-08-30T19:12:41.027Z,15.72
2018-08-30T19:15:17.152Z,15.81
2018-08-30T19:17:52.646Z,15.66
2018-08-30T19:20:28.802Z,15.63
2018-08-30T19:23:00.083Z,15.12
2018-08-30T19:25:31.541Z,15.18
2018-08-30T19:28:09.754Z,15.17
2018-08-30T19:30:41.670Z,15.01
2018-08-30T19:33:17.295Z,15.06
2018-08-30T19:35:52.747Z,15.24
2018-08-30T19:38:23.385Z,15.36
2018-08-30T19:40:58.856Z,15.38
2018-08-30T19:43:42.831Z,15.31
2018-08-30T19:46:13.310Z,15.27
2018-08-30T19:48:43.701Z,15.18
2018-08-30T19:51:14.037Z,15.20
2018-08-30T19:53:45.132Z,15.09
2018-08-30T19:56:16.402Z,15.00
2018-08-30T19:58:46.627Z,14.99
2018-08-30T20:01:16.810Z,14.89
2018-08-30T20:03:47.019Z,14.99
2018-08-30T20:06:17.125Z,15.03
2018-08-30T20:08:48.180Z,14.79
2018-08-30T20:11:18.584Z,14.88
2018-08-30T20:13:50.361Z,14.86
2018-08-30T20:16:21.096Z,14.86
2018-08-30T20:18:51.397Z,15.05
2018-08-30T20:21:21.539Z,14.80
2018-08-30T20:23:51.642Z,14.68
2018-08-30T20:26:24.899Z,14.62
2018-08-30T20:28:55.505Z,14.55
2018-08-30T20:31:27.146Z,14.64
2018-08-30T20:33:57.222Z,14.51
2018-08-30T20:36:27.596Z,14.38
2018-08-30T20:38:57.741Z,14.46
2018-08-30T20:41:27.929Z,14.32
2018-08-30T20:43:58.124Z,14.39
2018-08-30T20:46:31.671Z,14.20
2018-08-30T20:49:02.741Z,14.33
2018-08-30T20:51:54.034Z,14.28
2018-08-30T20:54:25.176Z,14.10
2018-08-30T20:56:56.506Z,14.14
2018-08-30T20:59:26.730Z,14.11
2018-08-30T21:01:56.928Z,13.95
2018-08-30T21:04:27.109Z,13.74
2018-08-30T21:06:57.192Z,13.67
2018-08-30T21:09:27.324Z,13.80
2018-08-30T21:11:57.354Z,13.96
2018-08-30T21:14:27.386Z,13.63
2018-08-30T21:16:57.494Z,13.35
2018-08-30T21:19:28.492Z,13.57
2018-08-30T21:21:58.732Z,13.70
2018-08-30T21:24:28.857Z,13.82
2018-08-30T21:26:58.873Z,13.68
2018-08-30T21:29:29.021Z,13.52
2018-08-30T21:31:59.165Z,13.70
2018-08-30T21:34:29.484Z,13.77
2018-08-30T21:36:59.516Z,13.76
2018-08-30T21:39:29.612Z,13.67
2018-08-30T21:41:59.634Z,13.57
2018-08-30T21:44:29.793Z,13.62
2018-08-30T21:46:59.943Z,13.42
2018-08-30T21:49:30.000Z,13.32
2018-08-30T21:52:00.325Z,13.18
2018-08-30T21:54:31.055Z,13.42
2018-08-30T21:57:01.129Z,13.38
2018-08-30T21:59:31.156Z,13.37
2018-08-30T22:02:01.869Z,13.34
2018-08-30T22:04:32.001Z,13.15
2018-08-30T22:07:02.244Z,13.09
2018-08-30T22:09:32.624Z,13.02
2018-08-30T22:12:03.903Z,13.04
2018-08-30T22:14:34.112Z,13.04
2018-08-30T22:17:04.132Z,13.12
2018-08-30T22:19:34.508Z,13.14
2018-08-30T22:22:06.292Z,13.17
2018-08-30T22:24:37.584Z,13.08
2018-08-30T22:27:07.796Z,13.11
2018-08-30T22:29:38.747Z,13.00
2018-08-30T22:32:08.686Z,12.99
2018-08-30T22:34:38.701Z,12.82
2018-08-30T22:37:08.719Z,12.78
2018-08-30T22:39:38.812Z,12.70
2018-08-30T22:42:08.805Z,12.70
2018-08-30T22:44:38.708Z,12.63
2018-08-30T22:47:08.657Z,12.78
2018-08-30T22:49:38.943Z,12.89
2018-08-30T22:52:09.268Z,12.71
2018-08-30T22:54:39.455Z,12.49
2018-08-30T22:57:09.723Z,12.19
2018-08-30T22:59:39.976Z,12.23
2018-08-30T23:02:10.354Z,12.20
2018-08-30T23:04:40.507Z,12.70
2018-08-30T23:07:11.131Z,12.68
2018-08-30T23:09:41.444Z,12.78
2018-08-30T23:12:11.705Z,12.68
2018-08-30T23:14:43.338Z,12.81
2018-08-30T23:17:13.532Z,12.82
2018-08-30T23:19:44.207Z,13.03
2018-08-30T23:22:14.380Z,12.90
2018-08-30T23:24:44.612Z,12.59
2018-08-30T23:27:14.927Z,12.43
2018-08-30T23:29:45.756Z,11.64
2018-08-30T23:32:15.877Z,11.50
2018-08-30T23:34:46.292Z,11.72
2018-08-30T23:37:16.631Z,12.27
2018-08-30T23:39:46.876Z,12.17
2018-08-30T23:42:17.002Z,12.49
2018-08-30T23:44:47.342Z,12.43
2018-08-30T23:47:27.442Z,12.39
2018-08-30T23:49:58.072Z,12.37
2018-08-30T23:52:28.315Z,12.30
2018-08-30T23:54:58.666Z,12.50
2018-08-30T23:57:28.844Z,12.53
